sensor_id;sensor_type;location;lat;lon;timestamp;temperature;humidity
7648;DHT22;3866;48.020;11.720;2022-12-26T00:00:06;6.00;99.90
7648;DHT22;3866;48.020;11.720;2022-12-26T00:02:33;5.90;99.90
7648;DHT22;3866;48.020;11.720;2022-12-26T00:05:00;5.90;99.90
7648;DHT22;3866;48.020;11.720;2022-12-26T00:07:27;5.70;99.90
7648;DHT22;3866;48.020;11.720;2022-12-26T00:09:55;5.70;99.90
7648;DHT22;3866;48.020;11.720;2022-12-26T00:12:22;5.60;99.90
7648;DHT22;3866;48.020;11.720;2022-12-26T00:14:49;5.50;99.90
7648;DHT22;3866;48.020;11.720;2022-12-26T00:17:16;5.40;99.90
7648;DHT22;3866;48.020;11.720;2022-12-26T00:19:43;5.30;99.90
7648;DHT22;3866;48.020;11.720;2022-12-26T00:22:10;5.30;99.90
7648;DHT22;3866;48.020;11.720;2022-12-26T00:24:37;5.20;99.90
7648;DHT22;3866;48.020;11.720;2022-12-26T00:27:05;5.10;99.90
7648;DHT22;3866;48.020;11.720;2022-12-26T00:29:32;5.00;99.90
7648;DHT22;3866;48.020;11.720;2022-12-26T00:31:59;5.00;99.90
7648;DHT22;3866;48.020;11.720;2022-12-26T00:34:26;4.90;99.90
7648;DHT22;3866;48.020;11.720;2022-12-26T00:36:53;5.00;99.90
7648;DHT22;3866;48.020;11.720;2022-12-26T00:39:20;5.00;99.90
7648;DHT22;3866;48.020;11.720;2022-12-26T00:41:47;5.00;99.90
7648;DHT22;3866;48.020;11.720;2022-12-26T00:44:15;5.00;99.90
7648;DHT22;3866;48.020;11.720;2022-12-26T00:46:42;5.00;99.90
7648;DHT22;3866;48.020;11.720;2022-12-26T00:49:09;5.00;99.90
7648;DHT22;3866;48.020;11.720;2022-12-26T00:51:36;5.00;99.90
7648;DHT22;3866;48.020;11.720;2022-12-26T00:54:03;5.10;99.90
7648;DHT22;3866;48.020;11.720;2022-12-26T00:56:29;5.20;99.90
7648;DHT22;3866;48.020;11.720;2022-12-26T00:58:56;5.20;99.90
7648;DHT22;3866;48.020;11.720;2022-12-26T01:01:25;5.10;99.90
7648;DHT22;3866;48.020;11.720;2022-12-26T01:03:56;5.20;99.90
7648;DHT22;3866;48.020;11.720;2022-12-26T01:06:23;5.20;99.90
7648;DHT22;3866;48.020;11.720;2022-12-26T01:08:50;5.30;99.90
7648;DHT22;3866;48.020;11.720;2022-12-26T01:11:16;5.40;99.90
7648;DHT22;3866;48.020;11.720;2022-12-26T01:14:05;5.50;99.90
7648;DHT22;3866;48.020;11.720;2022-12-26T01:16:34;5.60;99.90
7648;DHT22;3866;48.020;11.720;2022-12-26T01:19:01;5.90;99.90
7648;DHT22;3866;48.020;11.720;2022-12-26T01:21:28;5.90;99.90
7648;DHT22;3866;48.020;11.720;2022-12-26T01:23:55;6.10;99.90
7648;DHT22;3866;48.020;11.720;2022-12-26T01:26:21;6.20;99.90
7648;DHT22;3866;48.020;11.720;2022-12-26T01:28:49;6.30;99.90
7648;DHT22;3866;48.020;11.720;2022-12-26T01:31:16;6.30;99.90
7648;DHT22;3866;48.020;11.720;2022-12-26T01:33:45;6.40;99.90
7648;DHT22;3866;48.020;11.720;2022-12-26T01:36:12;6.50;99.90
7648;DHT22;3866;48.020;11.720;2022-12-26T01:38:39;6.50;99.90
7648;DHT22;3866;48.020;11.720;2022-12-26T01:41:06;6.50;99.90
7648;DHT22;3866;48.020;11.720;2022-12-26T01:43:52;6.60;99.90
7648;DHT22;3866;48.020;11.720;2022-12-26T01:46:22;6.80;99.90
7648;DHT22;3866;48.020;11.720;2022-12-26T01:48:51;6.90;99.90
7648;DHT22;3866;48.020;11.720;2022-12-26T01:51:20;7.00;99.90
7648;DHT22;3866;48.020;11.720;2022-12-26T01:53:53;6.90;99.90
7648;DHT22;3866;48.020;11.720;2022-12-26T01:56:24;6.90;99.90
7648;DHT22;3866;48.020;11.720;2022-12-26T01:58:56;7.00;99.90
7648;DHT22;3866;48.020;11.720;2022-12-26T02:01:29;7.10;99.90
7648;DHT22;3866;48.020;11.720;2022-12-26T02:03:59;7.10;99.90
7648;DHT22;3866;48.020;11.720;2022-12-26T02:06:46;7.00;99.90
7648;DHT22;3866;48.020;11.720;2022-12-26T02:09:13;6.80;99.90
7648;DHT22;3866;48.020;11.720;2022-12-26T02:11:42;6.70;99.90
7648;DHT22;3866;48.020;11.720;2022-12-26T02:14:11;6.60;99.90
7648;DHT22;3866;48.020;11.720;2022-12-26T02:16:39;6.60;99.90
7648;DHT22;3866;48.020;11.720;2022-12-26T02:19:17;6.50;99.90
7648;DHT22;3866;48.020;11.720;2022-12-26T02:22:09;6.40;99.90
7648;DHT22;3866;48.020;11.720;2022-12-26T02:24:54;6.30;99.90
7648;DHT22;3866;48.020;11.720;2022-12-26T02:30:32;6.30;99.90
7648;DHT22;3866;48.020;11.720;2022-12-26T02:33:19;6.20;99.90
7648;DHT22;3866;48.020;11.720;2022-12-26T02:36:00;6.20;99.90
7648;DHT22;3866;48.020;11.720;2022-12-26T02:38:34;6.20;99.90
7648;DHT22;3866;48.020;11.720;2022-12-26T02:41:10;6.10;99.90
7648;DHT22;3866;48.020;11.720;2022-12-26T02:43:51;6.10;99.90
7648;DHT22;3866;48.020;11.720;2022-12-26T02:46:29;6.30;99.90
7648;DHT22;3866;48.020;11.720;2022-12-26T02:49:20;6.40;99.90
7648;DHT22;3866;48.020;11.720;2022-12-26T02:51:55;6.50;99.90
7648;DHT22;3866;48.020;11.720;2022-12-26T02:54:47;6.50;99.90
7648;DHT22;3866;48.020;11.720;2022-12-26T02:57:38;6.50;99.90
7648;DHT22;3866;48.020;11.720;2022-12-26T03:00:24;6.70;99.90
7648;DHT22;3866;48.020;11.720;2022-12-26T03:03:14;6.70;99.90
7648;DHT22;3866;48.020;11.720;2022-12-26T03:06:02;6.70;99.90
7648;DHT22;3866;48.020;11.720;2022-12-26T03:08:51;6.50;99.90
7648;DHT22;3866;48.020;11.720;2022-12-26T03:11:38;6.40;99.90
7648;DHT22;3866;48.020;11.720;2022-12-26T03:14:25;6.30;99.90
7648;DHT22;3866;48.020;11.720;2022-12-26T03:17:01;6.30;99.90
7648;DHT22;3866;48.020;11.720;2022-12-26T03:19:51;6.20;99.90
7648;DHT22;3866;48.020;11.720;2022-12-26T03:22:30;6.20;99.90
7648;DHT22;3866;48.020;11.720;2022-12-26T03:24:59;6.20;99.90
7648;DHT22;3866;48.020;11.720;2022-12-26T03:27:46;6.10;99.90
7648;DHT22;3866;48.020;11.720;2022-12-26T03:30:13;6.10;99.90
7648;DHT22;3866;48.020;11.720;2022-12-26T03:32:58;6.00;99.90
7648;DHT22;3866;48.020;11.720;2022-12-26T03:35:30;6.20;99.90
7648;DHT22;3866;48.020;11.720;2022-12-26T03:37:59;6.10;99.90
7648;DHT22;3866;48.020;11.720;2022-12-26T03:40:48;6.10;99.90
7648;DHT22;3866;48.020;11.720;2022-12-26T03:43:47;6.00;99.90
7648;DHT22;3866;48.020;11.720;2022-12-26T03:46:49;6.00;99.90
7648;DHT22;3866;48.020;11.720;2022-12-26T03:49:42;5.90;99.90
7648;DHT22;3866;48.020;11.720;2022-12-26T03:52:36;5.90;99.90
7648;DHT22;3866;48.020;11.720;2022-12-26T03:55:34;5.80;99.90
7648;DHT22;3866;48.020;11.720;2022-12-26T03:58:24;5.70;99.90
7648;DHT22;3866;48.020;11.720;2022-12-26T04:01:15;5.70;99.90
7648;DHT22;3866;48.020;11.720;2022-12-26T04:04:01;5.70;99.90
7648;DHT22;3866;48.020;11.720;2022-12-26T04:06:50;5.70;99.90
7648;DHT22;3866;48.020;11.720;2022-12-26T04:09:40;5.70;99.90
7648;DHT22;3866;48.020;11.720;2022-12-26T04:12:27;5.70;99.90
7648;DHT22;3866;48.020;11.720;2022-12-26T04:15:19;5.80;99.90
7648;DHT22;3866;48.020;11.720;2022-12-26T04:18:09;5.90;99.90
7648;DHT22;3866;48.020;11.720;2022-12-26T04:21:14;5.80;99.90
7648;DHT22;3866;48.020;11.720;2022-12-26T04:23:59;5.80;99.90
7648;DHT22;3866;48.020;11.720;2022-12-26T04:26:50;5.60;99.90
7648;DHT22;3866;48.020;11.720;2022-12-26T04:29:35;5.60;99.90
7648;DHT22;3866;48.020;11.720;2022-12-26T04:32:25;5.50;99.90
7648;DHT22;3866;48.020;11.720;2022-12-26T04:35:15;5.50;99.90
7648;DHT22;3866;48.020;11.720;2022-12-26T04:38:02;5.40;99.90
7648;DHT22;3866;48.020;11.720;2022-12-26T04:40:49;5.40;99.90
7648;DHT22;3866;48.020;11.720;2022-12-26T04:43:37;5.30;99.90
7648;DHT22;3866;48.020;11.720;2022-12-26T04:46:22;5.20;99.90
7648;DHT22;3866;48.020;11.720;2022-12-26T04:48:52;5.20;99.90
7648;DHT22;3866;48.020;11.720;2022-12-26T04:51:37;5.20;99.90
7648;DHT22;3866;48.020;11.720;2022-12-26T04:54:05;5.30;99.90
7648;DHT22;3866;48.020;11.720;2022-12-26T04:56:32;5.20;99.90
7648;DHT22;3866;48.020;11.720;2022-12-26T04:59:00;5.00;99.90
7648;DHT22;3866;48.020;11.720;2022-12-26T05:01:27;4.80;99.90
7648;DHT22;3866;48.020;11.720;2022-12-26T05:04:13;4.80;99.90
7648;DHT22;3866;48.020;11.720;2022-12-26T05:06:58;4.80;99.90
7648;DHT22;3866;48.020;11.720;2022-12-26T05:09:43;4.90;99.90
7648;DHT22;3866;48.020;11.720;2022-12-26T05:12:10;4.80;99.90
7648;DHT22;3866;48.020;11.720;2022-12-26T05:14:38;4.70;99.90
7648;DHT22;3866;48.020;11.720;2022-12-26T05:17:06;4.70;99.90
7648;DHT22;3866;48.020;11.720;2022-12-26T05:19:51;4.70;99.90
7648;DHT22;3866;48.020;11.720;2022-12-26T05:22:37;4.60;99.90
7648;DHT22;3866;48.020;11.720;2022-12-26T05:25:24;4.50;99.90
7648;DHT22;3866;48.020;11.720;2022-12-26T05:28:10;4.50;99.90
7648;DHT22;3866;48.020;11.720;2022-12-26T05:30:56;4.50;99.90
7648;DHT22;3866;48.020;11.720;2022-12-26T05:33:23;4.50;99.90
7648;DHT22;3866;48.020;11.720;2022-12-26T05:36:08;4.60;99.90
7648;DHT22;3866;48.020;11.720;2022-12-26T05:38:36;4.50;99.90
7648;DHT22;3866;48.020;11.720;2022-12-26T05:41:03;4.60;99.90
7648;DHT22;3866;48.020;11.720;2022-12-26T05:43:31;4.70;99.90
7648;DHT22;3866;48.020;11.720;2022-12-26T05:45:59;4.80;99.90
7648;DHT22;3866;48.020;11.720;2022-12-26T05:48:28;4.90;99.90
7648;DHT22;3866;48.020;11.720;2022-12-26T05:50:58;4.90;99.90
7648;DHT22;3866;48.020;11.720;2022-12-26T05:53:25;4.90;99.90
7648;DHT22;3866;48.020;11.720;2022-12-26T05:55:52;4.90;99.90
7648;DHT22;3866;48.020;11.720;2022-12-26T05:58:19;5.00;99.90
7648;DHT22;3866;48.020;11.720;2022-12-26T06:00:46;4.80;99.90
7648;DHT22;3866;48.020;11.720;2022-12-26T06:03:16;4.80;99.90
7648;DHT22;3866;48.020;11.720;2022-12-26T06:05:43;4.80;99.90
7648;DHT22;3866;48.020;11.720;2022-12-26T06:08:10;5.20;99.90
7648;DHT22;3866;48.020;11.720;2022-12-26T06:10:37;5.30;99.90
7648;DHT22;3866;48.020;11.720;2022-12-26T06:13:04;5.60;99.90
7648;DHT22;3866;48.020;11.720;2022-12-26T06:15:31;5.70;99.90
7648;DHT22;3866;48.020;11.720;2022-12-26T06:17:58;5.90;99.90
7648;DHT22;3866;48.020;11.720;2022-12-26T06:20:26;6.10;99.90
7648;DHT22;3866;48.020;11.720;2022-12-26T06:22:53;6.30;99.90
7648;DHT22;3866;48.020;11.720;2022-12-26T06:25:20;6.50;99.90
7648;DHT22;3866;48.020;11.720;2022-12-26T06:27:47;6.70;99.90
7648;DHT22;3866;48.020;11.720;2022-12-26T06:30:14;6.80;99.90
7648;DHT22;3866;48.020;11.720;2022-12-26T06:32:41;6.90;99.90
7648;DHT22;3866;48.020;11.720;2022-12-26T06:35:08;7.00;99.90
7648;DHT22;3866;48.020;11.720;2022-12-26T06:37:36;7.30;99.90
7648;DHT22;3866;48.020;11.720;2022-12-26T06:40:04;7.40;99.90
7648;DHT22;3866;48.020;11.720;2022-12-26T06:42:31;7.00;99.90
7648;DHT22;3866;48.020;11.720;2022-12-26T06:44:58;6.70;99.90
7648;DHT22;3866;48.020;11.720;2022-12-26T06:47:25;6.50;99.90
7648;DHT22;3866;48.020;11.720;2022-12-26T06:49:52;6.30;99.90
7648;DHT22;3866;48.020;11.720;2022-12-26T06:52:19;6.10;99.90
7648;DHT22;3866;48.020;11.720;2022-12-26T06:54:47;5.90;99.90
7648;DHT22;3866;48.020;11.720;2022-12-26T06:57:14;5.70;99.90
7648;DHT22;3866;48.020;11.720;2022-12-26T06:59:41;6.10;99.90
7648;DHT22;3866;48.020;11.720;2022-12-26T07:02:08;6.50;99.90
7648;DHT22;3866;48.020;11.720;2022-12-26T07:04:36;6.40;99.90
7648;DHT22;3866;48.020;11.720;2022-12-26T07:07:03;6.60;99.90
7648;DHT22;3866;48.020;11.720;2022-12-26T07:09:29;6.50;99.90
7648;DHT22;3866;48.020;11.720;2022-12-26T07:11:58;6.40;99.90
7648;DHT22;3866;48.020;11.720;2022-12-26T07:14:25;6.40;99.90
7648;DHT22;3866;48.020;11.720;2022-12-26T07:16:52;6.50;99.90
7648;DHT22;3866;48.020;11.720;2022-12-26T07:19:19;6.60;99.90
7648;DHT22;3866;48.020;11.720;2022-12-26T07:21:46;6.70;99.90
7648;DHT22;3866;48.020;11.720;2022-12-26T07:24:14;6.80;99.90
7648;DHT22;3866;48.020;11.720;2022-12-26T07:26:42;6.90;99.90
7648;DHT22;3866;48.020;11.720;2022-12-26T07:29:10;7.10;99.90
7648;DHT22;3866;48.020;11.720;2022-12-26T07:31:38;7.30;99.90
7648;DHT22;3866;48.020;11.720;2022-12-26T07:34:05;7.40;99.90
7648;DHT22;3866;48.020;11.720;2022-12-26T07:36:32;7.40;99.90
7648;DHT22;3866;48.020;11.720;2022-12-26T07:38:59;7.30;99.90
7648;DHT22;3866;48.020;11.720;2022-12-26T07:41:27;7.30;99.90
7648;DHT22;3866;48.020;11.720;2022-12-26T07:44:13;7.30;99.90
7648;DHT22;3866;48.020;11.720;2022-12-26T07:46:40;7.30;99.90
7648;DHT22;3866;48.020;11.720;2022-12-26T07:49:07;7.50;99.90
7648;DHT22;3866;48.020;11.720;2022-12-26T07:51:36;7.70;99.90
7648;DHT22;3866;48.020;11.720;2022-12-26T07:54:04;7.90;99.90
7648;DHT22;3866;48.020;11.720;2022-12-26T07:56:31;8.00;99.90
7648;DHT22;3866;48.020;11.720;2022-12-26T07:58:58;8.10;99.90
7648;DHT22;3866;48.020;11.720;2022-12-26T08:01:26;8.10;99.90
7648;DHT22;3866;48.020;11.720;2022-12-26T08:03:53;8.10;99.90
7648;DHT22;3866;48.020;11.720;2022-12-26T08:06:20;8.20;99.90
7648;DHT22;3866;48.020;11.720;2022-12-26T08:08:47;8.30;99.90
7648;DHT22;3866;48.020;11.720;2022-12-26T08:11:15;8.90;99.90
7648;DHT22;3866;48.020;11.720;2022-12-26T08:13:42;9.40;99.90
7648;DHT22;3866;48.020;11.720;2022-12-26T08:16:11;10.20;99.90
7648;DHT22;3866;48.020;11.720;2022-12-26T08:18:39;11.00;99.90
7648;DHT22;3866;48.020;11.720;2022-12-26T08:21:06;11.80;99.90
7648;DHT22;3866;48.020;11.720;2022-12-26T08:23:33;12.20;99.90
7648;DHT22;3866;48.020;11.720;2022-12-26T08:26:04;12.60;99.90
7648;DHT22;3866;48.020;11.720;2022-12-26T08:28:31;12.80;99.90
7648;DHT22;3866;48.020;11.720;2022-12-26T08:30:58;13.10;99.90
7648;DHT22;3866;48.020;11.720;2022-12-26T08:33:25;13.50;99.90
7648;DHT22;3866;48.020;11.720;2022-12-26T08:35:53;13.10;99.90
7648;DHT22;3866;48.020;11.720;2022-12-26T08:38:20;12.80;99.90
7648;DHT22;3866;48.020;11.720;2022-12-26T08:40:53;12.50;99.90
7648;DHT22;3866;48.020;11.720;2022-12-26T08:43:21;12.50;99.90
7648;DHT22;3866;48.020;11.720;2022-12-26T08:45:56;12.20;99.90
7648;DHT22;3866;48.020;11.720;2022-12-26T08:48:23;11.60;99.90
7648;DHT22;3866;48.020;11.720;2022-12-26T08:50:56;11.60;99.90
7648;DHT22;3866;48.020;11.720;2022-12-26T08:53:23;11.80;99.90
7648;DHT22;3866;48.020;11.720;2022-12-26T08:55:51;12.80;99.90
7648;DHT22;3866;48.020;11.720;2022-12-26T08:58:18;13.10;99.90
7648;DHT22;3866;48.020;11.720;2022-12-26T09:00:47;13.90;99.90
7648;DHT22;3866;48.020;11.720;2022-12-26T09:03:14;12.50;99.90
7648;DHT22;3866;48.020;11.720;2022-12-26T09:05:41;12.60;99.90
7648;DHT22;3866;48.020;11.720;2022-12-26T09:08:10;12.80;99.90
7648;DHT22;3866;48.020;11.720;2022-12-26T09:10:37;12.50;99.90
7648;DHT22;3866;48.020;11.720;2022-12-26T09:13:04;12.40;99.90
7648;DHT22;3866;48.020;11.720;2022-12-26T09:15:31;12.30;99.90
7648;DHT22;3866;48.020;11.720;2022-12-26T09:17:58;12.40;99.90
7648;DHT22;3866;48.020;11.720;2022-12-26T09:20:25;12.20;99.90
7648;DHT22;3866;48.020;11.720;2022-12-26T09:22:52;13.20;99.90
7648;DHT22;3866;48.020;11.720;2022-12-26T09:25:24;13.70;99.90
7648;DHT22;3866;48.020;11.720;2022-12-26T09:27:51;13.60;99.90
7648;DHT22;3866;48.020;11.720;2022-12-26T09:30:20;13.60;99.90
7648;DHT22;3866;48.020;11.720;2022-12-26T09:32:47;13.40;99.90
7648;DHT22;3866;48.020;11.720;2022-12-26T09:35:14;13.70;99.90
7648;DHT22;3866;48.020;11.720;2022-12-26T09:37:41;14.30;99.90
7648;DHT22;3866;48.020;11.720;2022-12-26T09:40:20;14.00;99.90
7648;DHT22;3866;48.020;11.720;2022-12-26T09:42:58;14.20;99.90
7648;DHT22;3866;48.020;11.720;2022-12-26T09:45:36;14.50;99.90
7648;DHT22;3866;48.020;11.720;2022-12-26T09:48:12;14.10;99.90
7648;DHT22;3866;48.020;11.720;2022-12-26T09:50:39;14.50;99.90
7648;DHT22;3866;48.020;11.720;2022-12-26T09:53:11;15.20;99.90
7648;DHT22;3866;48.020;11.720;2022-12-26T09:55:43;15.40;99.90
7648;DHT22;3866;48.020;11.720;2022-12-26T09:58:21;15.80;99.90
7648;DHT22;3866;48.020;11.720;2022-12-26T10:00:50;14.60;99.90
7648;DHT22;3866;48.020;11.720;2022-12-26T10:03:18;15.00;99.90
7648;DHT22;3866;48.020;11.720;2022-12-26T10:06:08;14.20;99.90
7648;DHT22;3866;48.020;11.720;2022-12-26T10:08:45;14.50;99.90
7648;DHT22;3866;48.020;11.720;2022-12-26T10:11:18;14.50;99.90
7648;DHT22;3866;48.020;11.720;2022-12-26T10:13:50;14.10;99.90
7648;DHT22;3866;48.020;11.720;2022-12-26T10:16:35;13.80;99.90
7648;DHT22;3866;48.020;11.720;2022-12-26T10:19:10;13.70;99.90
7648;DHT22;3866;48.020;11.720;2022-12-26T10:21:44;13.90;99.90
7648;DHT22;3866;48.020;11.720;2022-12-26T10:24:15;14.00;99.90
7648;DHT22;3866;48.020;11.720;2022-12-26T10:26:47;14.10;99.90
7648;DHT22;3866;48.020;11.720;2022-12-26T10:29:20;14.20;99.90
7648;DHT22;3866;48.020;11.720;2022-12-26T10:31:51;14.40;99.90
7648;DHT22;3866;48.020;11.720;2022-12-26T10:34:22;14.60;99.90
7648;DHT22;3866;48.020;11.720;2022-12-26T10:36:54;14.60;99.90
7648;DHT22;3866;48.020;11.720;2022-12-26T10:39:26;14.60;99.90
7648;DHT22;3866;48.020;11.720;2022-12-26T10:41:57;14.80;99.90
7648;DHT22;3866;48.020;11.720;2022-12-26T10:44:26;14.80;99.90
7648;DHT22;3866;48.020;11.720;2022-12-26T10:47:06;15.10;99.90
7648;DHT22;3866;48.020;11.720;2022-12-26T10:49:38;15.40;99.90
7648;DHT22;3866;48.020;11.720;2022-12-26T10:52:05;15.60;99.90
7648;DHT22;3866;48.020;11.720;2022-12-26T10:54:32;15.70;99.90
7648;DHT22;3866;48.020;11.720;2022-12-26T10:56:59;15.90;99.90
7648;DHT22;3866;48.020;11.720;2022-12-26T10:59:37;16.00;99.90
7648;DHT22;3866;48.020;11.720;2022-12-26T11:02:14;15.70;99.90
7648;DHT22;3866;48.020;11.720;2022-12-26T11:05:00;15.40;99.90
7648;DHT22;3866;48.020;11.720;2022-12-26T11:07:30;15.40;99.90
7648;DHT22;3866;48.020;11.720;2022-12-26T11:09:58;15.40;99.90
7648;DHT22;3866;48.020;11.720;2022-12-26T11:12:29;15.40;99.90
7648;DHT22;3866;48.020;11.720;2022-12-26T11:15:03;15.30;99.90
7648;DHT22;3866;48.020;11.720;2022-12-26T11:17:34;15.50;99.90
7648;DHT22;3866;48.020;11.720;2022-12-26T11:20:28;15.40;99.90
7648;DHT22;3866;48.020;11.720;2022-12-26T11:23:22;15.30;99.90
7648;DHT22;3866;48.020;11.720;2022-12-26T11:25:51;15.10;99.90
7648;DHT22;3866;48.020;11.720;2022-12-26T11:28:27;15.10;99.90
7648;DHT22;3866;48.020;11.720;2022-12-26T11:30:56;15.10;99.90
7648;DHT22;3866;48.020;11.720;2022-12-26T11:33:26;14.90;99.90
7648;DHT22;3866;48.020;11.720;2022-12-26T11:36:02;14.80;99.90
7648;DHT22;3866;48.020;11.720;2022-12-26T11:38:31;14.70;99.90
7648;DHT22;3866;48.020;11.720;2022-12-26T11:41:07;14.60;99.90
7648;DHT22;3866;48.020;11.720;2022-12-26T11:43:53;14.60;99.90
7648;DHT22;3866;48.020;11.720;2022-12-26T11:46:31;14.70;99.90
7648;DHT22;3866;48.020;11.720;2022-12-26T11:48:59;15.10;99.90
7648;DHT22;3866;48.020;11.720;2022-12-26T11:51:39;15.00;99.90
7648;DHT22;3866;48.020;11.720;2022-12-26T11:54:23;14.90;99.90
7648;DHT22;3866;48.020;11.720;2022-12-26T11:57:07;14.50;99.90
7648;DHT22;3866;48.020;11.720;2022-12-26T11:59:35;14.40;99.90
7648;DHT22;3866;48.020;11.720;2022-12-26T12:02:21;14.20;99.90
7648;DHT22;3866;48.020;11.720;2022-12-26T12:04:50;14.10;99.90
7648;DHT22;3866;48.020;11.720;2022-12-26T12:10:45;13.80;99.90
7648;DHT22;3866;48.020;11.720;2022-12-26T12:16:12;13.60;99.90
7648;DHT22;3866;48.020;11.720;2022-12-26T12:18:49;13.50;99.90
7648;DHT22;3866;48.020;11.720;2022-12-26T12:21:27;13.50;99.90
7648;DHT22;3866;48.020;11.720;2022-12-26T12:26:56;13.50;99.90
7648;DHT22;3866;48.020;11.720;2022-12-26T12:29:38;13.30;99.90
7648;DHT22;3866;48.020;11.720;2022-12-26T12:32:12;13.30;99.90
7648;DHT22;3866;48.020;11.720;2022-12-26T12:34:59;13.20;99.90
7648;DHT22;3866;48.020;11.720;2022-12-26T12:37:48;13.20;99.90
7648;DHT22;3866;48.020;11.720;2022-12-26T12:40:26;13.20;99.90
7648;DHT22;3866;48.020;11.720;2022-12-26T12:43:06;13.10;99.90
7648;DHT22;3866;48.020;11.720;2022-12-26T12:45:44;13.10;99.90
7648;DHT22;3866;48.020;11.720;2022-12-26T12:48:28;12.80;99.90
7648;DHT22;3866;48.020;11.720;2022-12-26T12:51:05;12.80;99.90
7648;DHT22;3866;48.020;11.720;2022-12-26T12:53:49;12.60;99.90
7648;DHT22;3866;48.020;11.720;2022-12-26T12:56:26;12.40;99.90
7648;DHT22;3866;48.020;11.720;2022-12-26T12:59:04;12.00;99.90
7648;DHT22;3866;48.020;11.720;2022-12-26T13:01:37;11.70;99.90
7648;DHT22;3866;48.020;11.720;2022-12-26T13:04:11;11.40;99.90
7648;DHT22;3866;48.020;11.720;2022-12-26T13:06:46;11.10;99.90
7648;DHT22;3866;48.020;11.720;2022-12-26T13:09:19;11.00;99.90
7648;DHT22;3866;48.020;11.720;2022-12-26T13:11:52;10.80;99.90
7648;DHT22;3866;48.020;11.720;2022-12-26T13:14:23;10.70;99.90
7648;DHT22;3866;48.020;11.720;2022-12-26T13:16:53;10.50;99.90
7648;DHT22;3866;48.020;11.720;2022-12-26T13:19:24;10.30;99.90
7648;DHT22;3866;48.020;11.720;2022-12-26T13:21:56;10.30;99.90
7648;DHT22;3866;48.020;11.720;2022-12-26T13:24:30;10.20;99.90
7648;DHT22;3866;48.020;11.720;2022-12-26T13:27:00;10.20;99.90
7648;DHT22;3866;48.020;11.720;2022-12-26T13:29:36;10.10;99.90
7648;DHT22;3866;48.020;11.720;2022-12-26T13:32:15;10.10;99.90
7648;DHT22;3866;48.020;11.720;2022-12-26T13:34:42;10.00;99.90
7648;DHT22;3866;48.020;11.720;2022-12-26T13:40:16;10.00;99.90
7648;DHT22;3866;48.020;11.720;2022-12-26T13:42:44;9.90;99.90
7648;DHT22;3866;48.020;11.720;2022-12-26T13:45:52;9.90;99.90
7648;DHT22;3866;48.020;11.720;2022-12-26T13:51:53;9.80;99.90
7648;DHT22;3866;48.020;11.720;2022-12-26T13:54:21;9.70;99.90
7648;DHT22;3866;48.020;11.720;2022-12-26T14:00:05;9.50;99.90
7648;DHT22;3866;48.020;11.720;2022-12-26T14:05:56;9.40;99.90
7648;DHT22;3866;48.020;11.720;2022-12-26T14:08:36;9.40;99.90
7648;DHT22;3866;48.020;11.720;2022-12-26T14:11:18;9.30;99.90
7648;DHT22;3866;48.020;11.720;2022-12-26T14:14:02;9.20;99.90
7648;DHT22;3866;48.020;11.720;2022-12-26T14:16:40;9.20;99.90
7648;DHT22;3866;48.020;11.720;2022-12-26T14:19:15;9.10;99.90
7648;DHT22;3866;48.020;11.720;2022-12-26T14:21:51;9.10;99.90
7648;DHT22;3866;48.020;11.720;2022-12-26T14:24:30;9.00;99.90
7648;DHT22;3866;48.020;11.720;2022-12-26T14:27:16;9.00;99.90
7648;DHT22;3866;48.020;11.720;2022-12-26T14:29:54;8.90;99.90
7648;DHT22;3866;48.020;11.720;2022-12-26T14:32:32;8.80;99.90
7648;DHT22;3866;48.020;11.720;2022-12-26T14:35:07;8.80;99.90
7648;DHT22;3866;48.020;11.720;2022-12-26T14:37:45;8.80;99.90
7648;DHT22;3866;48.020;11.720;2022-12-26T14:40:26;8.80;99.90
7648;DHT22;3866;48.020;11.720;2022-12-26T14:43:10;8.70;99.90
7648;DHT22;3866;48.020;11.720;2022-12-26T14:45:46;8.70;99.90
7648;DHT22;3866;48.020;11.720;2022-12-26T14:51:32;8.60;99.90
7648;DHT22;3866;48.020;11.720;2022-12-26T14:54:35;8.60;99.90
7648;DHT22;3866;48.020;11.720;2022-12-26T15:06:15;8.40;99.90
7648;DHT22;3866;48.020;11.720;2022-12-26T15:09:06;8.40;99.90
7648;DHT22;3866;48.020;11.720;2022-12-26T15:11:57;8.30;99.90
7648;DHT22;3866;48.020;11.720;2022-12-26T15:17:33;8.30;99.90
7648;DHT22;3866;48.020;11.720;2022-12-26T15:20:33;8.20;99.90
7648;DHT22;3866;48.020;11.720;2022-12-26T15:23:26;8.20;99.90
7648;DHT22;3866;48.020;11.720;2022-12-26T15:26:13;8.20;99.90
7648;DHT22;3866;48.020;11.720;2022-12-26T15:29:04;8.20;99.90
7648;DHT22;3866;48.020;11.720;2022-12-26T15:31:41;8.10;99.90
7648;DHT22;3866;48.020;11.720;2022-12-26T15:34:29;8.00;99.90
7648;DHT22;3866;48.020;11.720;2022-12-26T15:37:01;8.10;99.90
7648;DHT22;3866;48.020;11.720;2022-12-26T15:39:38;8.00;99.90
7648;DHT22;3866;48.020;11.720;2022-12-26T15:42:22;8.00;99.90
7648;DHT22;3866;48.020;11.720;2022-12-26T15:45:00;7.90;99.90
7648;DHT22;3866;48.020;11.720;2022-12-26T15:47:35;8.00;99.90
7648;DHT22;3866;48.020;11.720;2022-12-26T15:50:15;7.90;99.90
7648;DHT22;3866;48.020;11.720;2022-12-26T15:52:51;7.90;99.90
7648;DHT22;3866;48.020;11.720;2022-12-26T15:55:45;7.90;99.90
7648;DHT22;3866;48.020;11.720;2022-12-26T15:58:33;7.80;99.90
7648;DHT22;3866;48.020;11.720;2022-12-26T16:01:03;7.80;99.90
7648;DHT22;3866;48.020;11.720;2022-12-26T16:03:35;7.90;99.90
7648;DHT22;3866;48.020;11.720;2022-12-26T16:06:26;7.90;99.90
7648;DHT22;3866;48.020;11.720;2022-12-26T16:09:10;7.90;99.90
7648;DHT22;3866;48.020;11.720;2022-12-26T16:11:48;7.80;99.90
7648;DHT22;3866;48.020;11.720;2022-12-26T16:14:27;7.80;99.90
7648;DHT22;3866;48.020;11.720;2022-12-26T16:17:08;7.80;99.90
7648;DHT22;3866;48.020;11.720;2022-12-26T16:19:36;7.80;99.90
7648;DHT22;3866;48.020;11.720;2022-12-26T16:22:06;7.80;99.90
7648;DHT22;3866;48.020;11.720;2022-12-26T16:25:06;7.70;99.90
7648;DHT22;3866;48.020;11.720;2022-12-26T16:27:35;7.70;99.90
7648;DHT22;3866;48.020;11.720;2022-12-26T16:30:06;7.70;99.90
7648;DHT22;3866;48.020;11.720;2022-12-26T16:32:35;7.70;99.90
7648;DHT22;3866;48.020;11.720;2022-12-26T16:35:03;7.70;99.90
7648;DHT22;3866;48.020;11.720;2022-12-26T16:37:31;7.60;99.90
7648;DHT22;3866;48.020;11.720;2022-12-26T16:40:16;7.60;99.90
7648;DHT22;3866;48.020;11.720;2022-12-26T16:43:00;7.60;99.90
7648;DHT22;3866;48.020;11.720;2022-12-26T16:45:31;7.60;99.90
7648;DHT22;3866;48.020;11.720;2022-12-26T16:47:58;7.50;99.90
7648;DHT22;3866;48.020;11.720;2022-12-26T16:50:28;7.50;99.90
7648;DHT22;3866;48.020;11.720;2022-12-26T16:53:05;7.50;99.90
7648;DHT22;3866;48.020;11.720;2022-12-26T16:55:38;7.50;99.90
7648;DHT22;3866;48.020;11.720;2022-12-26T16:58:22;7.50;99.90
7648;DHT22;3866;48.020;11.720;2022-12-26T17:01:00;7.40;99.90
7648;DHT22;3866;48.020;11.720;2022-12-26T17:03:38;7.40;99.90
7648;DHT22;3866;48.020;11.720;2022-12-26T17:06:08;7.40;99.90
7648;DHT22;3866;48.020;11.720;2022-12-26T17:08:40;7.30;99.90
7648;DHT22;3866;48.020;11.720;2022-12-26T17:11:08;7.40;99.90
7648;DHT22;3866;48.020;11.720;2022-12-26T17:13:35;7.30;99.90
7648;DHT22;3866;48.020;11.720;2022-12-26T17:16:06;7.30;99.90
7648;DHT22;3866;48.020;11.720;2022-12-26T17:18:47;7.30;99.90
7648;DHT22;3866;48.020;11.720;2022-12-26T17:21:30;7.30;99.90
7648;DHT22;3866;48.020;11.720;2022-12-26T17:24:13;7.30;99.90